Time;durP1;ratioP1;P1;durP2;ratioP2;P2;SDS_P1;SDS_P2;PMS_P1;PMS_P2;Temp;Humidity;BMP_temperature;BMP_pressure;BME280_temperature;BME280_humidity;BME280_pressure;Samples;Min_cycle;Max_cycle;Signal;HPM_P1;HPM_P2
2022/01/27 00:05:04;;;;;;;7.15;1.50;;;;;;;10.98;100.00;100391.81;5136553;27;20047;-89
2022/01/27 00:07:32;;;;;;;;;;;;;;;11.44;100.00;100456.16;5136352;27;20047;-89
2022/01/27 00:12:56;;;;;;;7.60;1.92;;;;;;;10.89;100.00;100441.13;5088954;28;20055;-89
2022/01/27 00:15:30;;;;;;;8.27;1.90;;;;;;;11.26;100.00;100484.94;5129636;27;20083;-89
2022/01/27 00:18:01;;;;;;;10.30;1.60;;;;;;;10.89;100.00;100441.13;5122831;27;20050;-89
2022/01/27 00:20:27;;;;;;;8.15;1.83;;;;;;;10.95;100.00;100430.41;5117163;27;20528;-90
2022/01/27 00:22:55;;;;;;;8.35;1.83;;;;;;;10.99;100.00;100448.53;5117573;27;20370;-90
2022/01/27 00:25:22;;;;;;;13.55;1.90;;;;;;;10.59;100.00;100455.50;5134802;27;20053;-89
2022/01/27 00:27:49;;;;;;;4.15;1.40;;;;;;;11.31;100.00;100490.78;5147634;27;20504;-89
2022/01/27 00:30:16;;;;;;;6.15;1.45;;;;;;;10.63;100.00;100450.97;5114780;27;20055;-89
2022/01/27 00:32:43;;;;;;;5.68;1.50;;;;;;;10.94;100.00;100429.56;5114430;28;20054;-88
2022/01/27 00:35:10;;;;;;;5.55;1.83;;;;;;;11.20;100.00;100485.19;5096245;28;20841;-89
2022/01/27 00:37:36;;;;;;;9.80;1.88;;;;;;;10.92;100.00;100481.16;5096769;28;20217;-89
2022/01/27 00:40:06;;;;;;;8.65;1.58;;;;;;;11.24;100.00;100494.59;5096778;28;20055;-89
2022/01/27 00:42:33;;;;;;;7.15;1.55;;;;;;;11.14;100.00;100460.13;5096702;28;20062;-89
2022/01/27 00:45:00;;;;;;;5.43;1.50;;;;;;;11.28;100.00;100504.06;5109642;27;20043;-89
2022/01/27 00:47:27;;;;;;;6.35;1.60;;;;;;;10.75;100.00;100467.94;5128654;27;20134;-90
2022/01/27 00:49:54;;;;;;;7.03;1.65;;;;;;;10.94;100.00;100502.03;5116383;27;20094;-89
2022/01/27 00:52:28;;;;;;;8.40;1.58;;;;;;;10.73;100.00;100483.72;5116654;27;20474;-89
2022/01/27 00:54:55;;;;;;;7.97;1.55;;;;;;;10.63;100.00;100470.16;5117518;27;20511;-87
2022/01/27 00:57:57;;;;;;;3.70;1.15;;;;;;;10.89;100.00;100517.09;5115992;27;20126;-88
2022/01/27 01:00:30;;;;;;;5.68;1.42;;;;;;;10.91;100.00;100531.00;5097113;27;20560;-89
2022/01/27 01:03:11;;;;;;;;;;;;;;;10.94;100.00;100520.38;5114939;27;20054;-88
2022/01/27 01:14:22;;;;;;;6.50;1.20;;;;;;;10.32;100.00;100522.91;5135131;27;20047;-88
2022/01/27 01:32:49;;;;;;;6.50;1.30;;;;;;;10.87;100.00;100561.72;5135135;27;20119;-90
2022/01/27 01:35:26;;;;;;;2.83;1.10;;;;;;;10.04;100.00;100557.97;5116551;27;20488;-90
2022/01/27 01:37:54;;;;;;;5.22;1.20;;;;;;;10.29;100.00;100564.88;5115931;27;20043;-90
2022/01/27 01:40:21;;;;;;;5.97;1.20;;;;;;;10.11;100.00;100600.47;5131806;27;20074;-89
2022/01/27 01:42:48;;;;;;;5.32;1.42;;;;;;;10.57;100.00;100595.22;5116123;27;20053;-90
2022/01/27 01:45:19;;;;;;;3.13;1.00;;;;;;;10.37;100.00;100559.38;5133647;27;20062;-90
2022/01/27 01:47:47;;;;;;;5.00;1.30;;;;;;;10.04;100.00;100610.28;5115862;27;20043;-89
2022/01/27 01:50:15;;;;;;;5.13;1.48;;;;;;;10.21;100.00;100606.19;5129976;27;20476;-88
2022/01/27 01:52:43;;;;;;;9.18;1.83;;;;;;;10.35;100.00;100626.63;5104269;27;20047;-88
2022/01/27 01:55:12;;;;;;;7.50;1.55;;;;;;;10.39;100.00;100602.91;5115898;27;20047;-88
2022/01/27 01:57:38;;;;;;;7.72;1.50;;;;;;;10.11;100.00;100602.19;5116618;27;20039;-90
2022/01/27 02:00:07;;;;;;;10.30;1.50;;;;;;;10.02;100.00;100596.41;5115489;27;20090;-88
2022/01/27 02:02:34;;;;;;;5.85;1.73;;;;;;;9.92;100.00;100595.06;5116362;27;20054;-90
2022/01/27 02:05:01;;;;;;;4.80;1.73;;;;;;;9.80;100.00;100606.81;5116406;27;20143;-89
2022/01/27 02:07:37;;;;;;;10.25;1.85;;;;;;;9.85;100.00;100604.88;5116416;27;20047;-89
2022/01/27 02:10:31;;;;;;;5.82;1.40;;;;;;;9.75;100.00;100615.72;5131715;27;20086;-88
2022/01/27 02:18:28;;;;;;;12.75;1.80;;;;;;;9.46;100.00;100620.25;5137464;27;20050;-89
2022/01/27 02:20:55;;;;;;;7.28;1.58;;;;;;;9.47;100.00;100632.38;5115318;27;20047;-89
2022/01/27 02:23:21;;;;;;;6.65;1.40;;;;;;;9.23;100.00;100611.41;5111450;28;20050;-89
2022/01/27 02:25:48;;;;;;;8.88;1.67;;;;;;;9.63;100.00;100610.03;5095571;28;20044;-90
2022/01/27 02:28:15;;;;;;;8.60;1.65;;;;;;;9.11;100.00;100623.13;5127431;27;20043;-89
2022/01/27 02:30:42;;;;;;;6.78;1.80;;;;;;;9.21;100.00;100620.22;5111370;28;20047;-88
2022/01/27 02:33:08;;;;;;;9.73;1.55;;;;;;;9.25;100.00;100598.31;5133891;27;20502;-90
2022/01/27 02:35:35;;;;;;;6.28;1.65;;;;;;;9.29;100.00;100658.22;5134129;27;20047;-89
2022/01/27 02:38:02;;;;;;;10.88;1.90;;;;;;;9.45;100.00;100661.19;5102957;28;20054;-89
2022/01/27 02:40:37;;;;;;;7.00;1.50;;;;;;;9.41;100.00;100663.97;5129616;28;20067;-89
2022/01/27 02:43:05;;;;;;;7.90;1.63;;;;;;;9.20;100.00;100674.22;5095524;28;20078;-89
2022/01/27 02:45:44;;;;;;;9.10;1.90;;;;;;;9.12;100.00;100671.88;5104594;28;20039;-90
2022/01/27 02:48:12;;;;;;;9.88;2.33;;;;;;;9.42;100.00;100700.50;5131474;28;20043;-91
2022/01/27 02:50:39;;;;;;;5.50;1.30;;;;;;;9.19;100.00;100680.38;5110224;28;20040;-90
2022/01/27 02:53:08;;;;;;;5.47;1.45;;;;;;;8.94;100.00;100709.00;5111020;28;20057;-90
2022/01/27 02:55:35;;;;;;;8.10;2.13;;;;;;;9.38;100.00;100696.25;5112292;28;20126;-90
2022/01/27 02:58:04;;;;;;;6.32;1.60;;;;;;;9.27;100.00;100704.47;5117549;27;20047;-87
2022/01/27 03:00:32;;;;;;;6.45;1.70;;;;;;;9.14;100.00;100700.56;5117798;27;20787;-88
2022/01/27 03:02:59;;;;;;;7.93;1.67;;;;;;;9.10;100.00;100701.53;5119442;27;20120;-91
2022/01/27 03:05:26;;;;;;;8.60;2.45;;;;;;;9.34;100.00;100722.56;5140650;27;20050;-88
2022/01/27 03:07:53;;;;;;;5.80;1.38;;;;;;;9.24;100.00;100719.38;5117218;27;20706;-88
2022/01/27 03:10:22;;;;;;;8.50;2.00;;;;;;;9.42;100.00;100720.53;5119274;27;20465;-88
2022/01/27 03:12:56;;;;;;;5.95;1.75;;;;;;;9.26;100.00;100735.84;5119588;27;20471;-87
2022/01/27 03:15:23;;;;;;;8.88;2.03;;;;;;;9.12;100.00;100684.06;5136680;27;20450;-87
2022/01/27 03:17:50;;;;;;;10.10;1.85;;;;;;;9.25;100.00;100706.28;5118497;27;20049;-88
2022/01/27 03:20:18;;;;;;;5.20;1.40;;;;;;;9.26;100.00;100726.28;5117717;27;20051;-88
2022/01/27 03:22:45;;;;;;;8.43;1.67;;;;;;;9.12;100.00;100737.16;5137125;27;20047;-88
2022/01/27 03:25:12;;;;;;;9.60;3.38;;;;;;;9.15;100.00;100714.47;5118922;27;20081;-88
2022/01/27 03:27:45;;;;;;;6.47;1.60;;;;;;;8.92;100.00;100711.69;5119311;27;20050;-88
2022/01/27 03:30:13;;;;;;;7.82;1.92;;;;;;;8.89;100.00;100719.59;5116219;27;20134;-89
2022/01/27 03:32:39;;;;;;;7.95;2.22;;;;;;;8.74;100.00;100720.91;5117070;28;20044;-88
2022/01/27 03:35:06;;;;;;;9.93;1.67;;;;;;;8.82;100.00;100702.41;5106624;27;20051;-89
2022/01/27 03:37:33;;;;;;;7.55;1.60;;;;;;;8.61;100.00;100703.91;5116248;28;20401;-89
2022/01/27 03:40:00;;;;;;;8.77;1.40;;;;;;;8.78;100.00;100753.00;5098317;27;20055;-89
2022/01/27 03:42:28;;;;;;;9.02;1.70;;;;;;;8.58;100.00;100755.34;5118096;27;20051;-89
2022/01/27 03:44:57;;;;;;;6.70;1.60;;;;;;;8.84;100.00;100771.09;5118912;27;20054;-89
2022/01/27 03:47:24;;;;;;;4.75;1.40;;;;;;;8.61;100.00;100724.81;5136294;27;20047;-90
2022/01/27 03:49:50;;;;;;;9.52;1.60;;;;;;;8.57;100.00;100709.28;5099140;28;20046;-89
2022/01/27 03:52:18;;;;;;;4.45;1.30;;;;;;;8.87;100.00;100785.81;5113396;28;20056;-89
2022/01/27 03:54:44;;;;;;;4.97;1.45;;;;;;;8.60;100.00;100746.56;5115855;28;20051;-89
2022/01/27 03:57:11;;;;;;;5.30;1.45;;;;;;;8.78;100.00;100754.75;5116067;27;20598;-89
2022/01/27 03:59:38;;;;;;;5.90;1.10;;;;;;;8.70;100.00;100766.28;5145475;27;20062;-89
2022/01/27 04:02:05;;;;;;;4.97;1.38;;;;;;;8.91;100.00;100777.84;5117223;27;20092;-90
2022/01/27 04:04:33;;;;;;;4.55;1.23;;;;;;;8.44;100.00;100767.03;5123579;27;20050;-89
2022/01/27 04:07:02;;;;;;;6.72;1.48;;;;;;;8.49;100.00;100780.81;5129059;27;20046;-89
2022/01/27 04:09:28;;;;;;;4.85;1.30;;;;;;;8.49;100.00;100795.63;5155400;27;20054;-89
2022/01/27 04:11:55;;;;;;;5.65;1.35;;;;;;;8.29;100.00;100783.94;5121100;27;20515;-89
2022/01/27 04:14:22;;;;;;;5.93;1.95;;;;;;;8.47;100.00;100800.03;5118402;27;20051;-89
2022/01/27 04:16:49;;;;;;;8.70;1.60;;;;;;;8.35;100.00;100788.97;5104196;28;20047;-89
2022/01/27 04:19:16;;;;;;;8.40;1.35;;;;;;;8.61;100.00;100797.88;5098642;28;20448;-90
2022/01/27 04:21:45;;;;;;;8.23;1.88;;;;;;;8.20;100.00;100776.38;5117501;27;20059;-89
2022/01/27 04:24:16;;;;;;;6.35;1.50;;;;;;;8.30;100.00;100777.81;5113901;27;20142;-90
2022/01/27 04:26:47;;;;;;;6.28;1.60;;;;;;;8.45;100.00;100831.38;5118133;27;20138;-89
2022/01/27 04:29:16;;;;;;;7.05;1.50;;;;;;;8.04;100.00;100773.31;5118506;27;20051;-89
2022/01/27 04:31:44;;;;;;;6.80;1.55;;;;;;;8.47;100.00;100828.72;5135743;27;20058;-89
2022/01/27 04:34:13;;;;;;;8.32;1.50;;;;;;;8.57;100.00;100822.38;5136114;27;20043;-88
2022/01/27 04:36:41;;;;;;;7.70;1.48;;;;;;;8.39;100.00;100815.00;5118522;27;20047;-88
2022/01/27 04:41:51;;;;;;;8.85;1.80;;;;;;;8.55;100.00;100825.00;5121190;27;20412;-89
2022/01/27 04:44:32;;;;;;;6.30;1.40;;;;;;;8.47;100.00;100832.19;5097400;28;20047;-88
2022/01/27 04:47:11;;;;;;;6.82;1.58;;;;;;;8.01;100.00;100801.22;5130277;27;20057;-90
2022/01/27 04:49:38;;;;;;;11.15;2.00;;;;;;;7.92;100.00;100821.41;5117655;27;20039;-89
2022/01/27 04:52:06;;;;;;;7.18;2.35;;;;;;;7.95;100.00;100779.63;5116669;27;20101;-89
2022/01/27 04:54:53;;;;;;;8.52;1.88;;;;;;;8.13;100.00;100820.03;5135774;27;20047;-89
2022/01/27 04:57:19;;;;;;;5.53;1.30;;;;;;;7.70;100.00;100788.97;5099996;28;20485;-89
2022/01/27 04:59:46;;;;;;;8.80;2.20;;;;;;;7.77;100.00;100821.78;5124936;27;20047;-89
2022/01/27 05:02:26;;;;;;;9.73;1.80;;;;;;;7.82;100.00;100851.22;5116169;27;20047;-90
2022/01/27 05:04:53;;;;;;;8.68;1.65;;;;;;;8.09;100.00;100838.38;5108911;27;20054;-89
2022/01/27 05:07:40;;;;;;;7.38;1.55;;;;;;;8.24;100.00;100839.75;5135407;27;20046;-88
2022/01/27 05:10:14;;;;;;;8.43;1.55;;;;;;;8.24;100.00;100864.06;5115312;27;20039;-88
2022/01/27 05:12:49;;;;;;;12.25;1.90;;;;;;;7.94;100.00;100803.97;5097759;28;20058;-89
2022/01/27 05:15:17;;;;;;;10.00;1.80;;;;;;;8.02;100.00;100801.19;5115175;27;20126;-89
2022/01/27 05:17:44;;;;;;;8.52;1.70;;;;;;;7.80;100.00;100848.63;5135346;27;20398;-89
2022/01/27 05:20:12;;;;;;;6.88;1.73;;;;;;;7.97;100.00;100824.78;5114726;28;20552;-89
2022/01/27 05:22:38;;;;;;;12.00;1.90;;;;;;;7.84;100.00;100819.91;5114356;28;20058;-89
2022/01/27 05:25:05;;;;;;;15.10;1.73;;;;;;;7.55;100.00;100801.47;5126370;27;20738;-89
2022/01/27 05:27:32;;;;;;;9.73;2.17;;;;;;;8.25;100.00;100873.63;5116499;27;20039;-88
2022/01/27 05:30:00;;;;;;;9.80;1.80;;;;;;;8.14;100.00;100857.38;5115520;27;20082;-89
2022/01/27 05:32:27;;;;;;;11.38;1.75;;;;;;;8.28;100.00;100873.53;5116071;27;20496;-88
2022/01/27 05:34:54;;;;;;;14.27;3.25;;;;;;;7.86;100.00;100873.72;5116467;27;20050;-89
2022/01/27 05:37:21;;;;;;;8.98;2.85;;;;;;;7.86;100.00;100872.84;5104037;27;20043;-89
2022/01/27 05:39:47;;;;;;;7.38;2.38;;;;;;;7.39;100.00;100842.66;5122013;27;20058;-89
2022/01/27 05:42:14;;;;;;;7.20;1.60;;;;;;;7.78;100.00;100880.88;5114594;27;20061;-89
2022/01/27 05:44:41;;;;;;;9.23;1.75;;;;;;;7.78;100.00;100844.38;5133596;27;20047;-89
2022/01/27 05:47:08;;;;;;;11.77;2.40;;;;;;;7.88;100.00;100852.81;5116651;27;20094;-88
2022/01/27 05:49:35;;;;;;;7.32;1.63;;;;;;;7.76;100.00;100848.78;5131176;27;20134;-89
2022/01/27 05:52:02;;;;;;;5.43;1.70;;;;;;;7.86;100.00;100902.41;5112454;27;20051;-90
2022/01/27 05:54:31;;;;;;;6.95;1.80;;;;;;;7.71;100.00;100861.91;5112313;28;20043;-89
2022/01/27 05:56:58;;;;;;;9.40;1.80;;;;;;;7.71;100.00;100889.72;5115552;27;20047;-89
2022/01/27 05:59:25;;;;;;;7.80;2.15;;;;;;;7.89;100.00;100904.91;5116607;27;20539;-89
2022/01/27 06:01:52;;;;;;;13.52;2.33;;;;;;;7.65;100.00;100887.25;5119358;27;20049;-90
2022/01/27 06:04:22;;;;;;;11.30;2.13;;;;;;;7.73;100.00;100909.63;5115633;27;20540;-89
2022/01/27 06:06:50;;;;;;;11.55;2.33;;;;;;;7.59;100.00;100899.50;5116235;27;20074;-89
2022/01/27 06:09:17;;;;;;;8.70;2.00;;;;;;;7.94;100.00;100884.81;5116131;27;20043;-90
2022/01/27 06:11:43;;;;;;;8.73;2.10;;;;;;;7.49;100.00;100861.56;5110751;28;20134;-90
2022/01/27 06:14:14;;;;;;;11.00;2.78;;;;;;;7.74;100.00;100916.56;5099581;27;20046;-89
2022/01/27 06:16:41;;;;;;;8.77;1.67;;;;;;;7.57;100.00;100903.06;5109638;27;20435;-89
2022/01/27 06:19:08;;;;;;;11.95;1.88;;;;;;;7.68;100.00;100897.59;5134022;27;20042;-89
2022/01/27 06:21:35;;;;;;;7.15;1.75;;;;;;;7.65;100.00;100889.84;5115034;28;20046;-89
2022/01/27 06:24:03;;;;;;;11.88;1.92;;;;;;;7.54;100.00;100914.44;5130609;27;20054;-89
2022/01/27 06:26:30;;;;;;;7.60;1.85;;;;;;;7.64;100.00;100872.50;5110355;28;20082;-89
2022/01/27 06:28:58;;;;;;;9.05;2.42;;;;;;;7.66;100.00;100923.69;5106650;28;20040;-89
2022/01/27 06:31:28;;;;;;;10.70;2.17;;;;;;;7.41;100.00;100877.34;5108654;27;20094;-88
2022/01/27 06:34:03;;;;;;;10.25;2.28;;;;;;;7.41;100.00;100877.34;5113725;27;20097;-89
2022/01/27 06:36:30;;;;;;;12.95;1.75;;;;;;;7.51;100.00;100924.91;5111341;27;20050;-89
2022/01/27 06:38:57;;;;;;;9.93;1.98;;;;;;;7.70;100.00;100941.00;5126057;28;20054;-89
2022/01/27 06:41:23;;;;;;;6.65;1.75;;;;;;;7.91;100.00;100947.44;5110904;28;20048;-86
2022/01/27 06:43:53;;;;;;;9.13;1.83;;;;;;;7.70;100.00;100934.91;5109745;28;20588;-89
2022/01/27 06:46:20;;;;;;;11.32;1.80;;;;;;;7.59;100.00;100927.31;5110269;28;20862;-89
2022/01/27 06:48:47;;;;;;;9.95;2.90;;;;;;;7.70;100.00;100940.13;5115064;28;20105;-89
2022/01/27 06:51:13;;;;;;;5.47;1.50;;;;;;;7.71;100.00;100916.63;5108789;28;20039;-88
2022/01/27 06:53:41;;;;;;;7.10;1.45;;;;;;;7.68;100.00;100947.97;5102273;28;20061;-89
2022/01/27 06:56:09;;;;;;;8.43;1.48;;;;;;;7.36;100.00;100925.22;5111951;28;20051;-87
2022/01/27 06:58:37;;;;;;;6.28;1.45;;;;;;;7.21;100.00;100918.59;5109143;28;20044;-87
2022/01/27 07:01:04;;;;;;;6.60;1.88;;;;;;;7.06;100.00;100965.78;5127343;28;20076;-91
2022/01/27 07:03:33;;;;;;;7.82;1.75;;;;;;;7.58;100.00;100985.56;5107757;28;20043;-92
2022/01/27 07:06:00;;;;;;;9.80;1.70;;;;;;;7.19;100.00;100947.28;5127014;28;20047;-90
2022/01/27 07:08:30;;;;;;;12.45;2.22;;;;;;;7.06;100.00;100965.78;5110178;28;20407;-89
2022/01/27 07:10:57;;;;;;;10.85;1.92;;;;;;;6.92;100.00;100966.03;5111340;28;20040;-90
2022/01/27 07:13:24;;;;;;;9.02;2.10;;;;;;;7.06;100.00;100982.25;5111981;28;20059;-89
2022/01/27 07:15:51;;;;;;;7.45;1.90;;;;;;;7.04;100.00;100999.66;5111349;27;20057;-90
2022/01/27 07:18:21;;;;;;;8.23;2.35;;;;;;;6.98;100.00;100981.56;5108933;28;20054;-90
2022/01/27 07:20:50;;;;;;;7.70;1.63;;;;;;;6.86;100.00;100989.59;5111643;28;20101;-90
2022/01/27 07:23:17;;;;;;;7.25;1.50;;;;;;;7.13;100.00;100972.56;5111455;28;20118;-89
2022/01/27 07:25:44;;;;;;;11.73;2.53;;;;;;;7.15;100.00;101009.84;5127988;28;20051;-91
2022/01/27 07:28:17;;;;;;;8.63;2.35;;;;;;;7.30;100.00;101032.16;5111909;28;20057;-89
2022/01/27 07:30:49;;;;;;;6.30;1.77;;;;;;;6.98;100.00;100979.78;5104978;28;20112;-90
2022/01/27 07:33:17;;;;;;;9.88;2.45;;;;;;;6.89;100.00;100959.16;5112483;28;20047;-90
2022/01/27 07:35:48;;;;;;;8.25;1.50;;;;;;;6.96;100.00;101014.56;5109646;28;20450;-90
2022/01/27 07:38:15;;;;;;;11.52;1.77;;;;;;;7.02;100.00;101050.88;5123128;28;20043;-91
2022/01/27 07:40:48;;;;;;;9.35;1.75;;;;;;;6.99;100.00;101074.38;5115822;28;20055;-89
2022/01/27 07:43:17;;;;;;;13.70;2.25;;;;;;;6.72;100.00;101037.50;5117381;28;20045;-90
2022/01/27 07:45:44;;;;;;;11.60;2.65;;;;;;;6.58;100.00;101000.47;5130659;27;20147;-90
2022/01/27 07:48:11;;;;;;;10.82;1.77;;;;;;;6.73;100.00;101014.94;5118530;27;20047;-90
2022/01/27 07:50:41;;;;;;;11.82;1.80;;;;;;;6.72;100.00;101034.91;5109211;27;20050;-90
2022/01/27 07:53:08;;;;;;;9.75;2.03;;;;;;;6.78;100.00;101041.75;5102795;27;20056;-90
2022/01/27 07:55:34;;;;;;;13.02;1.98;;;;;;;7.42;100.00;101086.63;5121191;27;20047;-90
2022/01/27 07:58:01;;;;;;;7.78;2.03;;;;;;;6.60;100.00;101033.38;5120272;27;20053;-90
2022/01/27 08:00:28;;;;;;;13.20;2.50;;;;;;;7.04;100.00;101083.81;5118600;27;20392;-88
2022/01/27 08:02:55;;;;;;;8.23;2.33;;;;;;;7.53;100.00;101055.16;5119110;27;20043;-90
2022/01/27 08:05:22;;;;;;;14.35;2.53;;;;;;;6.85;100.00;101082.41;5118531;27;20100;-89
2022/01/27 08:07:49;;;;;;;7.10;1.83;;;;;;;6.74;100.00;101042.69;5136874;27;20134;-89
2022/01/27 08:10:15;;;;;;;10.27;1.90;;;;;;;7.15;100.00;101082.78;5115312;27;20135;-90
2022/01/27 08:12:42;;;;;;;12.70;2.20;;;;;;;6.87;100.00;101041.63;5113046;27;20134;-89
2022/01/27 08:15:15;;;;;;;7.70;1.63;;;;;;;7.34;100.00;101114.56;5119294;27;20126;-90
2022/01/27 08:17:41;;;;;;;9.23;2.23;;;;;;;7.22;100.00;101068.75;5116779;28;20051;-90
2022/01/27 08:20:09;;;;;;;8.30;1.98;;;;;;;7.16;100.00;101087.09;5117472;27;20047;-90
2022/01/27 08:22:47;;;;;;;11.10;2.08;;;;;;;6.86;100.00;101065.91;5136906;27;20046;-89
2022/01/27 08:25:14;;;;;;;11.65;2.35;;;;;;;7.00;100.00;101104.75;5117464;27;20047;-88
2022/01/27 08:27:48;;;;;;;12.20;2.03;;;;;;;6.85;100.00;101103.22;5112783;28;20055;-90
2022/01/27 08:30:17;;;;;;;10.70;2.17;;;;;;;7.33;100.00;101144.09;5117929;27;20050;-91
2022/01/27 08:32:58;;;;;;;9.23;1.70;;;;;;;7.55;100.00;101105.50;5119188;27;20055;-89
2022/01/27 08:35:25;;;;;;;8.38;1.73;;;;;;;7.40;100.00;101104.91;5117903;27;20058;-90
2022/01/27 08:37:52;;;;;;;8.98;1.63;;;;;;;7.28;100.00;101146.78;5119799;27;20043;-91
2022/01/27 08:40:19;;;;;;;8.45;1.98;;;;;;;7.42;100.00;101175.22;5115266;27;20051;-91
2022/01/27 08:43:10;;;;;;;9.43;1.98;;;;;;;7.13;100.00;101111.44;5101218;28;20051;-91
2022/01/27 08:45:39;;;;;;;9.00;1.92;;;;;;;7.40;100.00;101109.22;5118725;27;20065;-90
2022/01/27 08:48:11;;;;;;;8.63;2.72;;;;;;;7.60;100.00;101169.66;5109612;27;20138;-90
2022/01/27 08:50:38;;;;;;;11.43;1.93;;;;;;;7.80;100.00;101145.81;5115808;27;20058;-90
2022/01/27 08:53:05;;;;;;;7.78;1.80;;;;;;;8.05;100.00;101163.59;5130014;27;20538;-90
2022/01/27 08:55:32;;;;;;;9.90;1.70;;;;;;;7.68;100.00;101129.56;5112895;27;20626;-91
2022/01/27 08:57:59;;;;;;;7.70;1.40;;;;;;;7.74;100.00;101177.22;5108863;27;20043;-90
2022/01/27 09:00:26;;;;;;;6.43;1.67;;;;;;;8.17;100.00;101131.19;5134702;27;20047;-90
2022/01/27 09:02:53;;;;;;;9.23;1.35;;;;;;;7.56;100.00;101138.47;5109639;27;20052;-90
2022/01/27 09:05:20;;;;;;;7.28;1.42;;;;;;;8.20;100.00;101158.94;5109640;27;20047;-90
2022/01/27 09:07:47;;;;;;;4.30;1.35;;;;;;;8.30;100.00;101176.97;5123399;27;20051;-90
2022/01/27 09:10:15;;;;;;;7.57;1.90;;;;;;;7.89;100.00;101160.41;5106342;27;20035;-90
2022/01/27 09:12:42;;;;;;;10.80;1.85;;;;;;;8.28;100.00;101168.31;5134858;27;20047;-89
2022/01/27 09:15:09;;;;;;;9.02;1.40;;;;;;;8.23;100.00;101204.06;5111324;27;20054;-88
2022/01/27 09:17:39;;;;;;;10.40;1.90;;;;;;;7.97;100.00;101215.03;5128476;27;20047;-88
2022/01/27 09:20:09;;;;;;;5.85;1.50;;;;;;;8.12;100.00;101201.69;5113677;27;20126;-89
2022/01/27 09:22:36;;;;;;;8.88;2.15;;;;;;;8.15;100.00;101259.03;5133849;27;20047;-89
2022/01/27 09:25:14;;;;;;;6.35;1.67;;;;;;;7.86;100.00;101263.91;5108814;27;20046;-89
2022/01/27 09:27:42;;;;;;;10.27;1.80;;;;;;;7.85;100.00;101301.31;5115351;27;20548;-88
2022/01/27 09:30:17;;;;;;;8.75;1.48;;;;;;;7.19;100.00;101246.78;5111872;28;20079;-88
2022/01/27 09:32:44;;;;;;;6.55;1.67;;;;;;;7.32;100.00;101276.09;5130283;27;20047;-89
2022/01/27 09:35:12;;;;;;;7.25;1.77;;;;;;;7.31;100.00;101315.19;5112341;27;20085;-91
2022/01/27 09:37:39;;;;;;;14.98;2.45;;;;;;;7.48;100.00;101309.72;5135122;27;20082;-89
2022/01/27 09:40:07;;;;;;;6.03;1.80;;;;;;;6.89;100.00;101278.44;5099287;27;20046;-90
2022/01/27 09:42:37;;;;;;;6.90;1.92;;;;;;;7.43;100.00;101314.16;5124012;27;20129;-87
2022/01/27 09:45:07;;;;;;;8.25;1.75;;;;;;;6.98;100.00;101289.59;5125642;27;20134;-89
2022/01/27 09:47:36;;;;;;;8.57;1.80;;;;;;;6.94;100.00;101284.44;5132722;27;20138;-90
2022/01/27 09:50:21;;;;;;;10.15;1.95;;;;;;;7.46;100.00;101332.34;5112749;27;20070;-90
2022/01/27 09:52:49;;;;;;;6.63;1.70;;;;;;;7.54;100.00;101333.97;5122766;27;20071;-90
2022/01/27 09:55:16;;;;;;;8.25;2.05;;;;;;;7.21;100.00;101271.03;5109455;27;20209;-91
2022/01/27 09:57:43;;;;;;;8.38;1.70;;;;;;;7.46;100.00;101340.16;5132140;27;20053;-91
2022/01/27 10:00:10;;;;;;;6.32;1.80;;;;;;;7.36;100.00;101303.81;5130446;27;20051;-90
2022/01/27 10:02:39;;;;;;;6.15;1.58;;;;;;;7.75;100.00;101329.28;5115073;27;20050;-91
2022/01/27 10:05:08;;;;;;;6.30;1.48;;;;;;;7.64;100.00;101313.81;5125333;27;20051;-90
2022/01/27 10:07:42;;;;;;;5.10;1.65;;;;;;;7.96;100.00;101373.22;5117694;27;20070;-89
2022/01/27 10:10:09;;;;;;;7.35;1.30;;;;;;;7.80;100.00;101374.38;5123025;27;20047;-89
2022/01/27 10:12:41;;;;;;;8.27;2.25;;;;;;;7.70;100.00;101385.81;5111242;27;20392;-90
2022/01/27 10:15:30;;;;;;;11.40;1.85;;;;;;;8.02;100.00;101411.41;5112167;28;20043;-91
2022/01/27 10:18:16;;;;;;;8.70;2.28;;;;;;;7.73;100.00;101419.66;5129254;27;20068;-91
2022/01/27 10:20:58;;;;;;;8.73;2.42;;;;;;;7.68;100.00;101416.28;5108899;28;20043;-90
2022/01/27 10:23:30;;;;;;;11.70;3.50;;;;;;;7.16;100.00;101399.63;5113074;27;20513;-90
2022/01/27 10:26:08;;;;;;;10.30;2.60;;;;;;;6.94;100.00;101401.59;5113348;27;20062;-89
2022/01/27 10:31:09;;;;;;;8.23;1.95;;;;;;;7.01;100.00;101440.59;5130676;27;20114;-89
2022/01/27 10:34:01;;;;;;;5.90;1.58;;;;;;;7.29;100.00;101461.06;5122228;27;20051;-90
2022/01/27 10:36:32;;;;;;;7.13;1.63;;;;;;;7.21;100.00;101447.31;5105750;27;20127;-86
2022/01/27 10:39:03;;;;;;;5.40;1.40;;;;;;;7.15;100.00;101448.25;5131984;27;20061;-86
2022/01/27 10:41:33;;;;;;;5.90;1.60;;;;;;;7.85;100.00;101470.78;5113394;28;20518;-91
2022/01/27 10:44:07;;;;;;;7.38;1.52;;;;;;;7.75;100.00;101480.47;5108098;28;20039;-89
2022/01/27 10:46:37;;;;;;;11.93;2.45;;;;;;;7.66;100.00;101467.56;5102664;28;20531;-91
2022/01/27 10:49:11;;;;;;;10.23;1.65;;;;;;;7.95;100.00;101486.25;5108118;28;20491;-91
2022/01/27 10:51:47;;;;;;;10.57;1.95;;;;;;;8.49;100.00;101508.94;5125282;28;20052;-91
2022/01/27 10:54:20;;;;;;;7.22;1.95;;;;;;;8.53;100.00;101501.91;5115311;28;20061;-92
2022/01/27 10:56:47;;;;;;;;;;;;;;;8.57;100.00;101510.53;5115270;28;20049;-91
2022/01/27 10:59:18;;;;;;;5.38;1.70;;;;;;;8.00;100.00;101494.00;5103742;28;19955;-91
2022/01/27 11:01:51;;;;;;;6.78;1.75;;;;;;;8.13;100.00;101492.09;5126405;28;20601;-90
2022/01/27 11:04:20;;;;;;;8.05;1.70;;;;;;;7.86;100.00;101482.91;5106403;28;20052;-91
2022/01/27 11:06:57;;;;;;;6.18;1.92;;;;;;;8.58;100.00;101494.88;5113055;28;20079;-91
2022/01/27 11:09:25;;;;;;;7.05;1.83;;;;;;;7.72;100.00;101457.91;5106303;28;20083;-91
2022/01/27 11:11:54;;;;;;;6.13;1.40;;;;;;;8.18;100.00;101509.41;5112143;28;20079;-91
2022/01/27 11:14:23;;;;;;;7.30;1.55;;;;;;;8.46;100.00;101513.34;5109796;28;20060;-91
2022/01/27 11:16:52;;;;;;;7.03;1.75;;;;;;;8.08;100.00;101504.34;5109214;28;20060;-92
2022/01/27 11:22:00;;;;;;;9.25;1.80;;;;;;;8.15;100.00;101482.50;5120012;27;20530;-92
2022/01/27 11:27:27;;;;;;;10.15;2.42;;;;;;;8.29;100.00;101531.84;5127040;27;20089;-92
2022/01/27 11:30:20;;;;;;;8.65;2.88;;;;;;;8.60;100.00;101552.25;5110810;28;20127;-92
2022/01/27 11:33:01;;;;;;;7.80;2.92;;;;;;;8.10;100.00;101566.03;5080318;28;20047;-91
2022/01/27 11:36:11;;;;;;;7.38;2.17;;;;;;;7.71;100.00;101572.63;5104862;27;20051;-91
2022/01/27 11:38:40;;;;;;;5.13;1.55;;;;;;;7.65;100.00;101565.75;5114525;27;20047;-92
2022/01/27 11:41:32;;;;;;;9.95;2.15;;;;;;;7.41;100.00;101582.53;5107868;27;20126;-91
2022/01/27 11:44:22;;;;;;;4.95;1.35;;;;;;;7.18;100.00;101585.38;5098760;28;20086;-89
2022/01/27 11:47:11;;;;;;;6.70;1.27;;;;;;;7.56;100.00;101591.91;5098740;28;20043;-90
2022/01/27 11:49:56;;;;;;;6.93;1.42;;;;;;;7.41;100.00;101586.00;5135473;27;20050;-91
2022/01/27 11:52:27;;;;;;;10.13;1.50;;;;;;;7.52;100.00;101595.44;5116004;27;20461;-92
2022/01/27 11:54:57;;;;;;;7.85;1.50;;;;;;;7.66;100.00;101564.00;5098297;28;20075;-90
2022/01/27 11:57:42;;;;;;;5.53;1.27;;;;;;;7.73;100.00;101576.94;5115985;28;20047;-90
2022/01/27 12:00:12;;;;;;;4.45;1.33;;;;;;;7.45;100.00;101575.53;5110863;27;20043;-88
2022/01/27 12:03:03;;;;;;;5.05;1.80;;;;;;;7.66;100.00;101606.56;5102720;27;20048;-89
2022/01/27 12:05:32;;;;;;;6.38;1.58;;;;;;;7.96;100.00;101610.53;5136019;27;21233;-86
2022/01/27 12:08:17;;;;;;;5.25;1.42;;;;;;;8.35;100.00;101602.19;5134621;27;20103;-88
2022/01/27 12:11:08;;;;;;;5.25;1.23;;;;;;;8.13;100.00;101591.22;5119124;27;20054;-88
2022/01/27 12:13:48;;;;;;;6.63;1.50;;;;;;;7.99;100.00;101601.84;5115441;27;20129;-86
2022/01/27 12:19:06;;;;;;;6.63;1.67;;;;;;;8.45;100.00;101631.69;5128533;27;20048;-88
2022/01/27 12:21:55;;;;;;;6.85;1.70;;;;;;;8.69;100.00;101607.81;5129786;27;20055;-87
2022/01/27 12:24:30;;;;;;;6.30;1.60;;;;;;;7.91;100.00;101627.13;5121699;27;20050;-88
2022/01/27 12:27:03;;;;;;;7.55;1.50;;;;;;;7.54;100.00;101643.19;5118144;27;20877;-89
2022/01/27 12:29:32;;;;;;;5.78;1.40;;;;;;;7.63;100.00;101635.25;5113255;27;20051;-87